Aviation Digital Data Service (ADDS)

Output produced by METARs form (2225 UTC 16 February 2019)
found at http://www.aviationweather.gov/metar/data/
 
METAR text: ETNL 162120Z 19001KT 9999 SCT280 BKN390 04/01 Q1023 BLU+
Conditions at: ETNL (LAAGE , DE) observed 2120 UTC 16 February 2019
Temperature: 4.0°C (39°F)
Dewpoint: 1.0°C (34°F) [RH = 81%]
Pressure (altimeter): 30.21 inches Hg (1023.0 mb)
Winds: from the S (190 degrees) at 1 MPH (1 knots; 0.5 m/s)
Visibility: 6 or more miles (10+ km)
Ceiling: 39000 feet AGL
Clouds: scattered clouds at 28000 feet AGL
broken clouds at 39000 feet AGL
Weather: no significant weather observed at this time

METAR text: ETNL 162020Z 23003KT 9999 FEW300 BKN390 08/01 Q1023 BLU+
Conditions at: ETNL (LAAGE , DE) observed 2020 UTC 16 February 2019
Temperature: 8.0°C (46°F)
Dewpoint: 1.0°C (34°F) [RH = 61%]
Pressure (altimeter): 30.21 inches Hg (1023.0 mb)
Winds: from the SW (230 degrees) at 3 MPH (3 knots; 1.5 m/s)
Visibility: 6 or more miles (10+ km)
Ceiling: 39000 feet AGL
Clouds: few clouds at 30000 feet AGL
broken clouds at 39000 feet AGL
Weather: no significant weather observed at this time

METAR text: ETNL 161920Z 25007KT 9999 FEW280 BKN350 09/01 Q1023 BLU+
Conditions at: ETNL (LAAGE , DE) observed 1920 UTC 16 February 2019
Temperature: 9.0°C (48°F)
Dewpoint: 1.0°C (34°F) [RH = 57%]
Pressure (altimeter): 30.21 inches Hg (1023.0 mb)
Winds: from the WSW (250 degrees) at 8 MPH (7 knots; 3.6 m/s)
Visibility: 6 or more miles (10+ km)
Ceiling: 35000 feet AGL
Clouds: few clouds at 28000 feet AGL
broken clouds at 35000 feet AGL
Weather: no significant weather observed at this time

METAR text: ETNL 161820Z 24006KT 9999 SCT280 BKN350 10/01 Q1022 BLU+
Conditions at: ETNL (LAAGE , DE) observed 1820 UTC 16 February 2019
Temperature: 10.0°C (50°F)
Dewpoint: 1.0°C (34°F) [RH = 53%]
Pressure (altimeter): 30.18 inches Hg (1022.0 mb)
Winds: from the WSW (240 degrees) at 7 MPH (6 knots; 3.1 m/s)
Visibility: 6 or more miles (10+ km)
Ceiling: 35000 feet AGL
Clouds: scattered clouds at 28000 feet AGL
broken clouds at 35000 feet AGL
Weather: no significant weather observed at this time

METAR text: ETNL 161720Z 26005KT 9999 SCT260 BKN320 10/01 Q1022 BLU+
Conditions at: ETNL (LAAGE , DE) observed 1720 UTC 16 February 2019
Temperature: 10.0°C (50°F)
Dewpoint: 1.0°C (34°F) [RH = 53%]
Pressure (altimeter): 30.18 inches Hg (1022.0 mb)
Winds: from the W (260 degrees) at 6 MPH (5 knots; 2.6 m/s)
Visibility: 6 or more miles (10+ km)
Ceiling: 32000 feet AGL
Clouds: scattered clouds at 26000 feet AGL
broken clouds at 32000 feet AGL
Weather: no significant weather observed at this time

METAR text: ETNL 161620Z 24006KT 9999 BKN270 BKN370 11/01 Q1022 BLU+
Conditions at: ETNL (LAAGE , DE) observed 1620 UTC 16 February 2019
Temperature: 11.0°C (52°F)
Dewpoint: 1.0°C (34°F) [RH = 50%]
Pressure (altimeter): 30.18 inches Hg (1022.0 mb)
Winds: from the WSW (240 degrees) at 7 MPH (6 knots; 3.1 m/s)
Visibility: 6 or more miles (10+ km)
Ceiling: 27000 feet AGL
Clouds: broken clouds at 27000 feet AGL
broken clouds at 37000 feet AGL
Weather: no significant weather observed at this time

METAR text: ETNL 161520Z 24008KT 9999 BKN270 13/01 Q1022 BLU+
Conditions at: ETNL (LAAGE , DE) observed 1520 UTC 16 February 2019
Temperature: 13.0°C (55°F)
Dewpoint: 1.0°C (34°F) [RH = 44%]
Pressure (altimeter): 30.18 inches Hg (1022.0 mb)
Winds: from the WSW (240 degrees) at 9 MPH (8 knots; 4.1 m/s)
Visibility: 6 or more miles (10+ km)
Ceiling: 27000 feet AGL
Clouds: broken clouds at 27000 feet AGL
Weather: no significant weather observed at this time

METAR text: ETNL 161420Z 24009KT 9999 BKN300 13/M00 Q1022 BLU+
Conditions at: ETNL (LAAGE , DE) observed 1420 UTC 16 February 2019
Temperature: 13.0°C (55°F)
Dewpoint: 0.0°C (32°F) [RH = 41%]
Pressure (altimeter): 30.18 inches Hg (1022.0 mb)
Winds: from the WSW (240 degrees) at 10 MPH (9 knots; 4.6 m/s)
Visibility: 6 or more miles (10+ km)
Ceiling: 30000 feet AGL
Clouds: broken clouds at 30000 feet AGL
Weather: no significant weather observed at this time

METAR text: ETNL 161320Z 24009KT 9999 BKN340 14/M00 Q1022 BLU+
Conditions at: ETNL (LAAGE , DE) observed 1320 UTC 16 February 2019
Temperature: 14.0°C (57°F)
Dewpoint: 0.0°C (32°F) [RH = 38%]
Pressure (altimeter): 30.18 inches Hg (1022.0 mb)
Winds: from the WSW (240 degrees) at 10 MPH (9 knots; 4.6 m/s)
Visibility: 6 or more miles (10+ km)
Ceiling: 34000 feet AGL
Clouds: broken clouds at 34000 feet AGL
Weather: no significant weather observed at this time

METAR text: ETNL 161220Z 24007KT 9999 FEW300 13/01 Q1023 BLU+
Conditions at: ETNL (LAAGE , DE) observed 1220 UTC 16 February 2019
Temperature: 13.0°C (55°F)
Dewpoint: 1.0°C (34°F) [RH = 44%]
Pressure (altimeter): 30.21 inches Hg (1023.0 mb)
Winds: from the WSW (240 degrees) at 8 MPH (7 knots; 3.6 m/s)
Visibility: 6 or more miles (10+ km)
Ceiling: at least 12,000 feet AGL
Clouds: few clouds at 30000 feet AGL
Weather: no significant weather observed at this time

METAR text: ETNL 161120Z 22008KT 9999 FEW300 11/00 Q1023 BLU+
Conditions at: ETNL (LAAGE , DE) observed 1120 UTC 16 February 2019
Temperature: 11.0°C (52°F)
Dewpoint: 0.0°C (32°F) [RH = 47%]
Pressure (altimeter): 30.21 inches Hg (1023.0 mb)
Winds: from the SW (220 degrees) at 9 MPH (8 knots; 4.1 m/s)
Visibility: 6 or more miles (10+ km)
Ceiling: at least 12,000 feet AGL
Clouds: few clouds at 30000 feet AGL
Weather: no significant weather observed at this time

METAR text: ETNL 161020Z 24009KT 9999 FEW300 10/M00 Q1023 BLU+
Conditions at: ETNL (LAAGE , DE) observed 1020 UTC 16 February 2019
Temperature: 10.0°C (50°F)
Dewpoint: 0.0°C (32°F) [RH = 50%]
Pressure (altimeter): 30.21 inches Hg (1023.0 mb)
Winds: from the WSW (240 degrees) at 10 MPH (9 knots; 4.6 m/s)
Visibility: 6 or more miles (10+ km)
Ceiling: at least 12,000 feet AGL
Clouds: few clouds at 30000 feet AGL
Weather: no significant weather observed at this time

METAR text: ETNL 160920Z 22007KT 9999 FEW300 08/M00 Q1023 BLU+
Conditions at: ETNL (LAAGE , DE) observed 0920 UTC 16 February 2019
Temperature: 8.0°C (46°F)
Dewpoint: 0.0°C (32°F) [RH = 57%]
Pressure (altimeter): 30.21 inches Hg (1023.0 mb)
Winds: from the SW (220 degrees) at 8 MPH (7 knots; 3.6 m/s)
Visibility: 6 or more miles (10+ km)
Ceiling: at least 12,000 feet AGL
Clouds: few clouds at 30000 feet AGL
Weather: no significant weather observed at this time

METAR text: ETNL 160820Z 20008KT 9999 05/M01 Q1024 BLU+
Conditions at: ETNL (LAAGE , DE) observed 0820 UTC 16 February 2019
Temperature: 5.0°C (41°F)
Dewpoint: -1.0°C (30°F) [RH = 65%]
Pressure (altimeter): 30.24 inches Hg (1024.0 mb)
Winds: from the SSW (200 degrees) at 9 MPH (8 knots; 4.1 m/s)
Visibility: 6 or more miles (10+ km)
Ceiling: unknown
Clouds: missing
Weather: no significant weather observed at this time

METAR text: ETNL 160720Z 21005KT 9999 04/M02 Q1024 BLU+
Conditions at: ETNL (LAAGE , DE) observed 0720 UTC 16 February 2019
Temperature: 4.0°C (39°F)
Dewpoint: -2.0°C (28°F) [RH = 65%]
Pressure (altimeter): 30.24 inches Hg (1024.0 mb)
Winds: from the SSW (210 degrees) at 6 MPH (5 knots; 2.6 m/s)
Visibility: 6 or more miles (10+ km)
Ceiling: unknown
Clouds: missing
Weather: no significant weather observed at this time

METAR text: ETNL 160620Z 22005KT 9999 04/M02 Q1024 BLU+
Conditions at: ETNL (LAAGE , DE) observed 0620 UTC 16 February 2019
Temperature: 4.0°C (39°F)
Dewpoint: -2.0°C (28°F) [RH = 65%]
Pressure (altimeter): 30.24 inches Hg (1024.0 mb)
Winds: from the SW (220 degrees) at 6 MPH (5 knots; 2.6 m/s)
Visibility: 6 or more miles (10+ km)
Ceiling: unknown
Clouds: missing
Weather: no significant weather observed at this time

METAR text: ETNL 160520Z 20005KT 9999 04/M01 Q1024 BLU+
Conditions at: ETNL (LAAGE , DE) observed 0520 UTC 16 February 2019
Temperature: 4.0°C (39°F)
Dewpoint: -1.0°C (30°F) [RH = 70%]
Pressure (altimeter): 30.24 inches Hg (1024.0 mb)
Winds: from the SSW (200 degrees) at 6 MPH (5 knots; 2.6 m/s)
Visibility: 6 or more miles (10+ km)
Ceiling: unknown
Clouds: missing
Weather: no significant weather observed at this time

METAR text: ETNL 160420Z 20006KT 9999 03/M01 Q1024 BLU+
Conditions at: ETNL (LAAGE , DE) observed 0420 UTC 16 February 2019
Temperature: 3.0°C (37°F)
Dewpoint: -1.0°C (30°F) [RH = 75%]
Pressure (altimeter): 30.24 inches Hg (1024.0 mb)
Winds: from the SSW (200 degrees) at 7 MPH (6 knots; 3.1 m/s)
Visibility: 6 or more miles (10+ km)
Ceiling: unknown
Clouds: missing
Weather: no significant weather observed at this time

METAR text: ETNL 160320Z 20006KT 9999 04/M01 Q1025 BLU+
Conditions at: ETNL (LAAGE , DE) observed 0320 UTC 16 February 2019
Temperature: 4.0°C (39°F)
Dewpoint: -1.0°C (30°F) [RH = 70%]
Pressure (altimeter): 30.27 inches Hg (1025.0 mb)
Winds: from the SSW (200 degrees) at 7 MPH (6 knots; 3.1 m/s)
Visibility: 6 or more miles (10+ km)
Ceiling: unknown
Clouds: missing
Weather: no significant weather observed at this time

METAR text: ETNL 160220Z 19007KT 9999 04/M01 Q1025 BLU+
Conditions at: ETNL (LAAGE , DE) observed 0220 UTC 16 February 2019
Temperature: 4.0°C (39°F)
Dewpoint: -1.0°C (30°F) [RH = 70%]
Pressure (altimeter): 30.27 inches Hg (1025.0 mb)
Winds: from the S (190 degrees) at 8 MPH (7 knots; 3.6 m/s)
Visibility: 6 or more miles (10+ km)
Ceiling: unknown
Clouds: missing
Weather: no significant weather observed at this time

METAR text: ETNL 160120Z 20004KT 9999 04/M01 Q1026 BLU+
Conditions at: ETNL (LAAGE , DE) observed 0120 UTC 16 February 2019
Temperature: 4.0°C (39°F)
Dewpoint: -1.0°C (30°F) [RH = 70%]
Pressure (altimeter): 30.30 inches Hg (1026.0 mb)
Winds: from the SSW (200 degrees) at 5 MPH (4 knots; 2.1 m/s)
Visibility: 6 or more miles (10+ km)
Ceiling: unknown
Clouds: missing
Weather: no significant weather observed at this time

METAR text: ETNL 160020Z 19007KT 9999 06/M01 Q1027 BLU+
Conditions at: ETNL (LAAGE , DE) observed 0020 UTC 16 February 2019
Temperature: 6.0°C (43°F)
Dewpoint: -1.0°C (30°F) [RH = 61%]
Pressure (altimeter): 30.32 inches Hg (1027.0 mb)
Winds: from the S (190 degrees) at 8 MPH (7 knots; 3.6 m/s)
Visibility: 6 or more miles (10+ km)
Ceiling: unknown
Clouds: missing
Weather: no significant weather observed at this time

METAR text: ETNL 152320Z 16004KT 9999 04/M01 Q1027 BLU+
Conditions at: ETNL (LAAGE , DE) observed 2320 UTC 15 February 2019
Temperature: 4.0°C (39°F)
Dewpoint: -1.0°C (30°F) [RH = 70%]
Pressure (altimeter): 30.32 inches Hg (1027.0 mb)
Winds: from the SSE (160 degrees) at 5 MPH (4 knots; 2.1 m/s)
Visibility: 6 or more miles (10+ km)
Ceiling: unknown
Clouds: missing
Weather: no significant weather observed at this time

METAR text: ETNL 152220Z 19004KT 9999 05/M01 Q1028 BLU+
Conditions at: ETNL (LAAGE , DE) observed 2220 UTC 15 February 2019
Temperature: 5.0°C (41°F)
Dewpoint: -1.0°C (30°F) [RH = 65%]
Pressure (altimeter): 30.35 inches Hg (1028.0 mb)
Winds: from the S (190 degrees) at 5 MPH (4 knots; 2.1 m/s)
Visibility: 6 or more miles (10+ km)
Ceiling: unknown
Clouds: missing
Weather: no significant weather observed at this time

METAR text: ETNL 152120Z 18004KT 9999 05/M01 Q1028 BLU+
Conditions at: ETNL (LAAGE , DE) observed 2120 UTC 15 February 2019
Temperature: 5.0°C (41°F)
Dewpoint: -1.0°C (30°F) [RH = 65%]
Pressure (altimeter): 30.35 inches Hg (1028.0 mb)
Winds: from the S (180 degrees) at 5 MPH (4 knots; 2.1 m/s)
Visibility: 6 or more miles (10+ km)
Ceiling: unknown
Clouds: missing
Weather: no significant weather observed at this time

METAR text: ETNL 152020Z 19004KT 9999 06/M01 Q1029 BLU+
Conditions at: ETNL (LAAGE , DE) observed 2020 UTC 15 February 2019
Temperature: 6.0°C (43°F)
Dewpoint: -1.0°C (30°F) [RH = 61%]
Pressure (altimeter): 30.38 inches Hg (1029.0 mb)
Winds: from the S (190 degrees) at 5 MPH (4 knots; 2.1 m/s)
Visibility: 6 or more miles (10+ km)
Ceiling: unknown
Clouds: missing
Weather: no significant weather observed at this time

METAR text: ETNL 151920Z 19004KT 9999 06/M01 Q1029 BLU+
Conditions at: ETNL (LAAGE , DE) observed 1920 UTC 15 February 2019
Temperature: 6.0°C (43°F)
Dewpoint: -1.0°C (30°F) [RH = 61%]
Pressure (altimeter): 30.38 inches Hg (1029.0 mb)
Winds: from the S (190 degrees) at 5 MPH (4 knots; 2.1 m/s)
Visibility: 6 or more miles (10+ km)
Ceiling: unknown
Clouds: missing
Weather: no significant weather observed at this time

METAR text: ETNL 151820Z 19004KT 9999 07/M01 Q1030 BLU+
Conditions at: ETNL (LAAGE , DE) observed 1820 UTC 15 February 2019
Temperature: 7.0°C (45°F)
Dewpoint: -1.0°C (30°F) [RH = 57%]
Pressure (altimeter): 30.41 inches Hg (1030.0 mb)
Winds: from the S (190 degrees) at 5 MPH (4 knots; 2.1 m/s)
Visibility: 6 or more miles (10+ km)
Ceiling: unknown
Clouds: missing
Weather: no significant weather observed at this time

METAR text: ETNL 151720Z 17003KT 9999 FEW360 06/M00 Q1030 BLU+
Conditions at: ETNL (LAAGE , DE) observed 1720 UTC 15 February 2019
Temperature: 6.0°C (43°F)
Dewpoint: 0.0°C (32°F) [RH = 65%]
Pressure (altimeter): 30.41 inches Hg (1030.0 mb)
Winds: from the S (170 degrees) at 3 MPH (3 knots; 1.5 m/s)
Visibility: 6 or more miles (10+ km)
Ceiling: at least 12,000 feet AGL
Clouds: few clouds at 36000 feet AGL
Weather: no significant weather observed at this time

METAR text: ETNL 151620Z 20003KT 9999 FEW360 08/00 Q1030 BLU+
Conditions at: ETNL (LAAGE , DE) observed 1620 UTC 15 February 2019
Temperature: 8.0°C (46°F)
Dewpoint: 0.0°C (32°F) [RH = 57%]
Pressure (altimeter): 30.41 inches Hg (1030.0 mb)
Winds: from the SSW (200 degrees) at 3 MPH (3 knots; 1.5 m/s)
Visibility: 6 or more miles (10+ km)
Ceiling: at least 12,000 feet AGL
Clouds: few clouds at 36000 feet AGL
Weather: no significant weather observed at this time

METAR text: ETNL 151520Z 21003KT 9999 FEW360 11/M00 Q1031 BLU+
Conditions at: ETNL (LAAGE , DE) observed 1520 UTC 15 February 2019
Temperature: 11.0°C (52°F)
Dewpoint: 0.0°C (32°F) [RH = 47%]
Pressure (altimeter): 30.44 inches Hg (1031.0 mb)
Winds: from the SSW (210 degrees) at 3 MPH (3 knots; 1.5 m/s)
Visibility: 6 or more miles (10+ km)
Ceiling: at least 12,000 feet AGL
Clouds: few clouds at 36000 feet AGL
Weather: no significant weather observed at this time

METAR text: ETNL 151420Z 21003KT 9999 BKN360 12/01 Q1031 BLU+
Conditions at: ETNL (LAAGE , DE) observed 1420 UTC 15 February 2019
Temperature: 12.0°C (54°F)
Dewpoint: 1.0°C (34°F) [RH = 47%]
Pressure (altimeter): 30.44 inches Hg (1031.0 mb)
Winds: from the SSW (210 degrees) at 3 MPH (3 knots; 1.5 m/s)
Visibility: 6 or more miles (10+ km)
Ceiling: 36000 feet AGL
Clouds: broken clouds at 36000 feet AGL
Weather: no significant weather observed at this time

METAR text: ETNL 151320Z 22006KT 9999 BKN390 11/01 Q1032 BLU+
Conditions at: ETNL (LAAGE , DE) observed 1320 UTC 15 February 2019
Temperature: 11.0°C (52°F)
Dewpoint: 1.0°C (34°F) [RH = 50%]
Pressure (altimeter): 30.47 inches Hg (1032.0 mb)
Winds: from the SW (220 degrees) at 7 MPH (6 knots; 3.1 m/s)
Visibility: 6 or more miles (10+ km)
Ceiling: 39000 feet AGL
Clouds: broken clouds at 39000 feet AGL
Weather: no significant weather observed at this time

METAR text: ETNL 151220Z 21005KT 9999 BKN390 10/01 Q1032 BLU+
Conditions at: ETNL (LAAGE , DE) observed 1220 UTC 15 February 2019
Temperature: 10.0°C (50°F)
Dewpoint: 1.0°C (34°F) [RH = 53%]
Pressure (altimeter): 30.47 inches Hg (1032.0 mb)
Winds: from the SSW (210 degrees) at 6 MPH (5 knots; 2.6 m/s)
Visibility: 6 or more miles (10+ km)
Ceiling: 39000 feet AGL
Clouds: broken clouds at 39000 feet AGL
Weather: no significant weather observed at this time

METAR text: ETNL 151120Z 21004KT 9999 BKN390 08/02 Q1033 BLU+FCST CANCEL
Conditions at: ETNL (LAAGE , DE) observed 1120 UTC 15 February 2019
Temperature: 8.0°C (46°F)
Dewpoint: 2.0°C (36°F) [RH = 66%]
Pressure (altimeter): 30.50 inches Hg (1033.0 mb)
Winds: from the SSW (210 degrees) at 5 MPH (4 knots; 2.1 m/s)
Visibility: 6 or more miles (10+ km)
Ceiling: 39000 feet AGL
Clouds: broken clouds at 39000 feet AGL
Weather: no significant weather observed at this time

Forecast for: ETNL (LAAGE , DE)
Text: TAF ETNL 161700Z 1618/1706 23008KT 9999 NSW FEW300
Forecast period: 1800 to 1900 UTC 16 February 2019
Forecast type: FROM: standard forecast or significant change
Winds: from the SW (230 degrees) at 9 MPH (8 knots; 4.1 m/s)
Visibility: 6 or more miles 10+ km)
Ceiling: at least 12,000 feet AGL
Clouds: few clouds at 30000 feet AGL
Weather: NSW  (no significant weather)
Text: BECMG 1619/1621 24007KT 7000 NSW BKN020
Forecast period: 1900 to 2200 UTC 16 February 2019
Forecast type: BECOMING: Conditions expected to become as follows by 2100 UTC 16 February 2019
Winds: from the WSW (240 degrees) at 8 MPH (7 knots; 3.6 m/s)
Visibility: 4 miles (7 km)
Ceiling: 2000 feet AGL
Clouds: broken clouds at 2000 feet AGL
Weather: NSW  (no significant weather)
Text: BECMG 1622/1624 24005KT 7000 NSW BKN010 OVC015
Forecast period: 2200 UTC 16 February 2019 to 0600 UTC 17 February 2019
Forecast type: BECOMING: Conditions expected to become as follows by 0000 UTC 17 February 2019
Winds: from the WSW (240 degrees) at 6 MPH (5 knots; 2.6 m/s)
Visibility: 4 miles (7 km)
Ceiling: 1000 feet AGL
Clouds: broken clouds at 1000 feet AGL
overcast cloud deck at 1500 feet AGL
Weather: NSW  (no significant weather)
Text: TEMPO 1702/1706 25007KT 5000 BR BKN005 OVC008 BY ETGL
Forecast period: 0200 to 0600 UTC 17 February 2019
Forecast type: TEMPORARY: The following changes expected for less than half the time period
Winds: from the WSW (250 degrees) at 8 MPH (7 knots; 3.6 m/s)
Visibility: 3 miles (5 km)
Ceiling: 500 feet AGL
Clouds: broken clouds at 500 feet AGL
overcast cloud deck at 800 feet AGL
Weather: BR  (mist)